Time;durP1;ratioP1;P1;durP2;ratioP2;P2;SDS_P1;SDS_P2;PMS_P1;PMS_P2;Temp;Humidity;BMP_temperature;BMP_pressure;BME280_temperature;BME280_humidity;BME280_pressure;Samples;Min_cycle;Max_cycle;Signal;HPM_P1;HPM_P2
2023/03/03 00:01:16;;;;;;;22.50;13.18;;;2.50;99.90;;;;;;5019105;28;20053;-78
2023/03/03 00:03:41;;;;;;;24.85;13.90;;;2.50;99.90;;;;;;5020088;28;20033;-79
2023/03/03 00:06:10;;;;;;;25.23;14.10;;;2.40;99.90;;;;;;5016983;28;20099;-79
2023/03/03 00:08:36;;;;;;;25.65;14.73;;;2.40;99.90;;;;;;5000703;28;20033;-78
2023/03/03 00:11:04;;;;;;;25.27;14.73;;;2.50;99.90;;;;;;5000413;28;20085;-77
2023/03/03 00:13:32;;;;;;;25.65;14.65;;;2.50;99.90;;;;;;4999512;28;20041;-78
2023/03/03 00:16:12;;;;;;;25.00;14.80;;;2.40;99.90;;;;;;5000147;28;20044;-80
2023/03/03 00:18:42;;;;;;;23.85;14.13;;;2.50;99.90;;;;;;5017078;28;20033;-79
2023/03/03 00:21:30;;;;;;;25.85;15.80;;;2.50;99.90;;;;;;5018406;28;20042;-79
2023/03/03 00:24:23;;;;;;;24.35;13.23;;;2.50;99.90;;;;;;5000858;28;20051;-79
2023/03/03 00:26:54;;;;;;;22.73;13.07;;;2.60;99.90;;;;;;5010409;28;20049;-79
2023/03/03 00:29:44;;;;;;;30.17;16.45;;;2.60;99.90;;;;;;5016503;28;20033;-79
2023/03/03 00:32:41;;;;;;;27.70;16.08;;;2.60;99.90;;;;;;5017464;28;20044;-78
2023/03/03 00:35:37;;;;;;;29.42;17.08;;;2.50;99.90;;;;;;5004570;28;20054;-76
2023/03/03 00:38:18;;;;;;;26.50;14.40;;;2.40;99.90;;;;;;5017607;28;20084;-78
2023/03/03 00:40:46;;;;;;;23.27;12.82;;;2.40;99.90;;;;;;5018548;28;20469;-79
2023/03/03 00:43:18;;;;;;;22.60;13.57;;;2.30;99.90;;;;;;5004801;28;20025;-80
2023/03/03 00:45:52;;;;;;;24.75;13.88;;;2.40;99.90;;;;;;5017387;28;20041;-78
2023/03/03 00:48:26;;;;;;;23.58;14.25;;;2.50;99.90;;;;;;4999041;28;20056;-79
2023/03/03 00:50:52;;;;;;;;;;;2.50;99.90;;;;;;5018438;28;20037;-78
2023/03/03 00:53:20;;;;;;;25.60;13.68;;;2.50;99.90;;;;;;5017511;28;19913;-77
2023/03/03 00:55:50;;;;;;;27.98;15.40;;;2.40;99.90;;;;;;5000520;28;20037;-77
2023/03/03 00:58:17;;;;;;;27.00;14.48;;;2.40;99.90;;;;;;5031392;28;20053;-79
2023/03/03 01:00:43;;;;;;;26.90;15.38;;;2.30;99.90;;;;;;5020601;28;20123;-77
2023/03/03 01:03:20;;;;;;;28.33;15.88;;;2.30;99.90;;;;;;5020132;28;20071;-77
2023/03/03 01:05:48;;;;;;;29.23;15.95;;;2.30;99.90;;;;;;5023507;28;20049;-77
2023/03/03 01:08:16;;;;;;;25.88;14.82;;;2.20;99.90;;;;;;5018806;28;20033;-78
2023/03/03 01:10:48;;;;;;;26.13;15.38;;;2.20;99.90;;;;;;5037578;28;20332;-77
2023/03/03 01:13:14;;;;;;;28.03;15.63;;;2.10;99.90;;;;;;5035851;28;20033;-78
2023/03/03 01:15:40;;;;;;;31.38;16.38;;;2.10;99.90;;;;;;5020698;28;20280;-78
2023/03/03 01:18:06;;;;;;;32.08;17.42;;;2.00;99.90;;;;;;5045683;28;20044;-78
2023/03/03 01:20:32;;;;;;;26.27;15.45;;;2.00;99.90;;;;;;5019203;28;20124;-78
2023/03/03 01:22:57;;;;;;;27.88;15.90;;;2.00;99.90;;;;;;5036709;28;20127;-78
2023/03/03 01:25:23;;;;;;;28.10;15.43;;;1.90;99.90;;;;;;5019269;28;20033;-77
2023/03/03 01:27:48;;;;;;;28.85;15.98;;;1.90;99.90;;;;;;5018756;28;20041;-77
2023/03/03 01:30:14;;;;;;;25.27;14.63;;;1.90;99.90;;;;;;5017290;28;20042;-78
2023/03/03 01:32:40;;;;;;;23.67;14.05;;;1.90;99.90;;;;;;5036946;28;20051;-78
2023/03/03 01:35:06;;;;;;;26.60;14.57;;;1.90;99.90;;;;;;5035437;28;20042;-77
2023/03/03 01:37:34;;;;;;;26.15;14.05;;;1.90;99.90;;;;;;5023261;28;20761;-80
2023/03/03 01:40:00;;;;;;;24.98;14.02;;;1.90;99.90;;;;;;5036369;28;20107;-79
2023/03/03 01:42:28;;;;;;;20.98;12.20;;;1.90;99.90;;;;;;5017826;28;20482;-78
2023/03/03 01:45:15;;;;;;;22.58;12.88;;;1.90;99.90;;;;;;5036242;28;20048;-78
2023/03/03 01:47:50;;;;;;;21.90;13.15;;;2.00;99.90;;;;;;5018377;28;20053;-79
2023/03/03 01:50:32;;;;;;;23.08;13.13;;;2.00;99.90;;;;;;5016300;28;20049;-79
2023/03/03 01:53:00;;;;;;;21.05;12.25;;;2.00;99.90;;;;;;5018039;28;20037;-79
2023/03/03 01:55:33;;;;;;;22.98;13.20;;;2.00;99.90;;;;;;5018529;28;20045;-81
2023/03/03 01:58:06;;;;;;;20.98;11.43;;;2.00;99.90;;;;;;5024667;28;20045;-78
2023/03/03 02:00:33;;;;;;;;;;;2.00;99.90;;;;;;5016065;28;20067;-78
2023/03/03 02:02:59;;;;;;;25.60;12.77;;;2.00;99.90;;;;;;4997865;28;20047;-79
2023/03/03 02:05:25;;;;;;;19.98;11.23;;;2.00;99.90;;;;;;5003811;28;20726;-80
2023/03/03 02:07:51;;;;;;;22.25;12.50;;;2.10;99.90;;;;;;5003327;28;20579;-77
2023/03/03 02:10:19;;;;;;;20.55;11.60;;;2.10;99.90;;;;;;5016040;28;20108;-79
2023/03/03 02:12:51;;;;;;;24.27;12.45;;;2.10;99.90;;;;;;4998667;28;20068;-78
2023/03/03 02:15:28;;;;;;;23.05;13.40;;;2.10;99.90;;;;;;5000181;28;20037;-78
2023/03/03 02:17:56;;;;;;;26.85;15.20;;;2.10;99.90;;;;;;5014012;28;20033;-79
2023/03/03 02:20:35;;;;;;;23.95;14.20;;;2.10;99.90;;;;;;4997545;28;20037;-78
2023/03/03 02:23:21;;;;;;;25.02;14.70;;;2.10;99.90;;;;;;4997344;28;20042;-78
2023/03/03 02:25:54;;;;;;;26.95;14.57;;;2.10;99.90;;;;;;5016249;28;20064;-79
2023/03/03 02:28:21;;;;;;;23.23;14.20;;;2.10;99.90;;;;;;4999036;28;20034;-77
2023/03/03 02:30:53;;;;;;;23.83;13.05;;;2.10;99.90;;;;;;4996068;28;20049;-78
2023/03/03 02:33:18;;;;;;;25.35;13.77;;;2.10;99.90;;;;;;5015312;28;20050;-79
2023/03/03 02:35:44;;;;;;;24.88;13.35;;;2.10;99.90;;;;;;4999884;28;20121;-80
2023/03/03 02:38:50;;;;;;;22.38;13.45;;;2.20;99.90;;;;;;5002791;28;20120;-79
2023/03/03 02:41:20;;;;;;;21.27;12.02;;;2.20;99.90;;;;;;5014612;28;20124;-80
2023/03/03 02:44:06;;;;;;;25.30;13.68;;;2.20;99.90;;;;;;5015014;28;20045;-78
2023/03/03 02:46:35;;;;;;;27.45;14.65;;;2.20;99.90;;;;;;5015379;28;20042;-77
2023/03/03 02:49:02;;;;;;;23.48;13.27;;;2.30;99.90;;;;;;4997662;28;20048;-78
2023/03/03 02:51:28;;;;;;;21.25;12.65;;;2.30;99.90;;;;;;4997314;28;20040;-77
2023/03/03 02:53:53;;;;;;;26.88;14.60;;;2.30;99.90;;;;;;4997300;28;20034;-78
2023/03/03 02:56:19;;;;;;;26.20;13.63;;;2.30;99.90;;;;;;5003634;28;20041;-79
2023/03/03 02:58:44;;;;;;;24.40;13.48;;;2.30;99.90;;;;;;5031088;28;20390;-78
2023/03/03 03:01:10;;;;;;;27.23;14.27;;;2.30;99.90;;;;;;5035672;28;20056;-79
2023/03/03 03:03:36;;;;;;;26.67;14.18;;;2.20;99.90;;;;;;5039845;28;20095;-79
2023/03/03 03:06:02;;;;;;;22.95;12.90;;;2.20;99.90;;;;;;5020688;28;20033;-79
2023/03/03 03:08:28;;;;;;;22.90;13.10;;;2.20;99.90;;;;;;5025410;28;20064;-78
2023/03/03 03:10:55;;;;;;;22.33;12.07;;;2.20;99.90;;;;;;5037107;28;20075;-80
2023/03/03 03:13:21;;;;;;;21.27;11.00;;;2.20;99.90;;;;;;5039795;28;20041;-79
2023/03/03 03:15:47;;;;;;;21.52;10.82;;;2.20;99.90;;;;;;5039635;28;20033;-77
2023/03/03 03:18:13;;;;;;;20.33;11.50;;;2.30;99.90;;;;;;5026041;28;20051;-79
2023/03/03 03:20:40;;;;;;;24.05;12.60;;;2.30;99.90;;;;;;5025054;28;20520;-77
2023/03/03 03:23:06;;;;;;;23.05;12.32;;;2.30;99.90;;;;;;5019994;28;20084;-78
2023/03/03 03:25:32;;;;;;;24.38;12.68;;;2.30;99.90;;;;;;5038321;28;20556;-81
2023/03/03 03:27:58;;;;;;;25.50;12.65;;;2.30;99.90;;;;;;5038679;28;20051;-79
2023/03/03 03:30:23;;;;;;;23.23;12.57;;;2.30;99.90;;;;;;5026257;28;20041;-78
2023/03/03 03:32:49;;;;;;;22.30;12.10;;;2.30;99.90;;;;;;5038622;28;20052;-78
2023/03/03 03:35:16;;;;;;;26.35;14.43;;;2.30;99.90;;;;;;5038785;28;20481;-78
2023/03/03 03:37:42;;;;;;;27.50;15.00;;;2.30;99.90;;;;;;5021450;28;20825;-80
2023/03/03 03:40:08;;;;;;;25.80;13.95;;;2.30;99.90;;;;;;5018093;28;20091;-80
2023/03/03 03:42:34;;;;;;;26.38;13.85;;;2.30;99.90;;;;;;5037799;28;20389;-77
2023/03/03 03:44:59;;;;;;;24.73;13.48;;;2.30;99.90;;;;;;5037565;28;20045;-79
2023/03/03 03:47:27;;;;;;;26.88;13.07;;;2.30;99.90;;;;;;5039130;28;20059;-79
2023/03/03 03:49:53;;;;;;;28.48;14.65;;;2.30;99.90;;;;;;5019278;28;20029;-78
2023/03/03 03:52:19;;;;;;;23.88;12.82;;;2.30;99.90;;;;;;5018789;28;20048;-77
2023/03/03 03:54:44;;;;;;;26.02;13.40;;;2.30;99.90;;;;;;5025406;28;20043;-79
2023/03/03 03:57:10;;;;;;;23.33;12.85;;;2.30;99.90;;;;;;5016202;28;20448;-78
2023/03/03 03:59:35;;;;;;;24.75;12.85;;;2.30;99.90;;;;;;5018046;28;20125;-78
2023/03/03 04:02:01;;;;;;;26.13;14.15;;;2.30;99.90;;;;;;4999706;28;20035;-78
2023/03/03 04:04:26;;;;;;;32.95;17.35;;;2.30;99.90;;;;;;5000451;28;20407;-79
2023/03/03 04:06:52;;;;;;;31.52;15.77;;;2.30;99.90;;;;;;4999916;28;20056;-78
2023/03/03 04:09:18;;;;;;;26.63;14.63;;;2.30;99.90;;;;;;5006077;28;20478;-79
2023/03/03 04:11:44;;;;;;;28.95;14.20;;;2.30;99.90;;;;;;5016188;28;20483;-80
2023/03/03 04:14:09;;;;;;;23.90;13.05;;;2.30;99.90;;;;;;5016598;28;20056;-81
2023/03/03 04:16:35;;;;;;;23.83;12.60;;;2.30;99.90;;;;;;5000309;28;20040;-80
2023/03/03 04:19:01;;;;;;;23.10;12.57;;;2.40;99.90;;;;;;5002306;28;20038;-79
2023/03/03 04:21:26;;;;;;;26.30;12.40;;;2.40;99.90;;;;;;5017313;28;20040;-79
2023/03/03 04:23:52;;;;;;;24.40;12.68;;;2.40;99.90;;;;;;5000485;28;20053;-78
2023/03/03 04:26:18;;;;;;;26.25;13.30;;;2.40;99.90;;;;;;5000012;28;20049;-80
2023/03/03 04:28:44;;;;;;;26.55;13.13;;;2.40;99.90;;;;;;5000950;28;20105;-80
2023/03/03 04:31:10;;;;;;;29.00;15.25;;;2.40;99.90;;;;;;5017782;28;20046;-79
2023/03/03 04:33:36;;;;;;;27.77;14.20;;;2.40;99.90;;;;;;5016779;28;20057;-80
2023/03/03 04:36:01;;;;;;;25.58;13.98;;;2.40;99.90;;;;;;5017801;28;20038;-79
2023/03/03 04:38:27;;;;;;;30.63;15.18;;;2.40;99.90;;;;;;5018669;28;20033;-79
2023/03/03 04:40:52;;;;;;;28.30;15.23;;;2.40;99.90;;;;;;5016652;28;20781;-78
2023/03/03 04:43:18;;;;;;;32.38;15.82;;;2.40;99.90;;;;;;4999829;28;20029;-78
2023/03/03 04:45:44;;;;;;;33.28;16.35;;;2.40;99.90;;;;;;5016987;28;20044;-80
2023/03/03 04:48:09;;;;;;;32.70;16.55;;;2.40;99.90;;;;;;5005089;28;20045;-79
2023/03/03 04:50:35;;;;;;;35.05;16.08;;;2.30;99.90;;;;;;5016729;28;20470;-79
2023/03/03 04:53:01;;;;;;;34.85;16.15;;;2.30;99.90;;;;;;5004826;28;20034;-80
2023/03/03 04:55:26;;;;;;;31.60;16.35;;;2.30;99.90;;;;;;4999740;28;20113;-78
2023/03/03 04:57:52;;;;;;;31.25;15.60;;;2.30;99.90;;;;;;5009235;28;20402;-79
2023/03/03 05:00:18;;;;;;;27.58;13.73;;;2.30;99.90;;;;;;5020899;28;20029;-79
2023/03/03 05:02:43;;;;;;;29.75;15.18;;;2.30;99.90;;;;;;5024832;28;20114;-77
2023/03/03 05:05:10;;;;;;;30.05;14.93;;;2.30;99.90;;;;;;5024395;28;20038;-77
2023/03/03 05:07:35;;;;;;;28.13;14.40;;;2.30;99.90;;;;;;5018739;28;20138;-77
2023/03/03 05:10:01;;;;;;;30.58;14.70;;;2.30;99.90;;;;;;5037266;28;20041;-79
2023/03/03 05:12:27;;;;;;;35.33;16.20;;;2.30;99.90;;;;;;5018379;28;20054;-79
2023/03/03 05:14:53;;;;;;;32.85;15.63;;;2.30;99.90;;;;;;5035264;28;20487;-79
2023/03/03 05:17:18;;;;;;;36.85;16.73;;;2.30;99.90;;;;;;5037728;28;20047;-78
2023/03/03 05:19:44;;;;;;;32.05;16.80;;;2.30;99.90;;;;;;5038424;28;20486;-79
2023/03/03 05:22:09;;;;;;;28.73;14.15;;;2.40;99.90;;;;;;5023060;28;20420;-78
2023/03/03 05:24:35;;;;;;;27.25;13.93;;;2.30;99.90;;;;;;5035661;28;20045;-79
2023/03/03 05:27:02;;;;;;;27.17;14.75;;;2.40;99.90;;;;;;5019556;28;20049;-79
2023/03/03 05:29:30;;;;;;;28.63;14.18;;;2.40;99.90;;;;;;5036151;28;20509;-79
2023/03/03 05:31:59;;;;;;;30.55;16.05;;;2.40;99.90;;;;;;5018793;28;20095;-79
2023/03/03 05:34:24;;;;;;;31.40;15.00;;;2.40;99.90;;;;;;5023298;28;20191;-78
2023/03/03 05:36:50;;;;;;;34.03;16.35;;;2.40;99.90;;;;;;5037029;28;20457;-78
2023/03/03 05:39:16;;;;;;;32.65;16.13;;;2.40;99.90;;;;;;5024376;28;20052;-77
2023/03/03 05:41:41;;;;;;;29.63;14.85;;;2.40;99.90;;;;;;5037251;28;20116;-78
2023/03/03 05:44:11;;;;;;;31.42;15.02;;;2.40;99.90;;;;;;5035350;28;20111;-78
2023/03/03 05:46:37;;;;;;;28.63;14.13;;;2.30;99.90;;;;;;5018086;28;20544;-78
2023/03/03 05:49:02;;;;;;;27.88;13.45;;;2.30;99.90;;;;;;5023658;28;20036;-78
2023/03/03 05:51:28;;;;;;;26.70;14.13;;;2.30;99.90;;;;;;5036465;28;20056;-80
2023/03/03 05:53:54;;;;;;;26.35;12.80;;;2.30;99.90;;;;;;5018641;28;20124;-78
2023/03/03 05:56:19;;;;;;;23.27;11.95;;;2.30;99.90;;;;;;5035254;28;20045;-80
2023/03/03 05:58:45;;;;;;;25.98;12.32;;;2.30;99.90;;;;;;5004946;28;20104;-78
2023/03/03 06:01:11;;;;;;;25.10;12.38;;;2.30;99.90;;;;;;5004098;28;20096;-79
2023/03/03 06:03:36;;;;;;;24.45;13.07;;;2.30;99.90;;;;;;5018933;28;20041;-77
2023/03/03 06:06:02;;;;;;;27.13;13.68;;;2.30;99.90;;;;;;5015829;28;20495;-78
2023/03/03 06:08:35;;;;;;;22.83;13.15;;;2.30;99.90;;;;;;5005031;28;20068;-80
2023/03/03 06:11:04;;;;;;;26.30;13.63;;;2.20;99.90;;;;;;5004335;28;20072;-79
2023/03/03 06:13:49;;;;;;;27.23;12.75;;;2.20;99.90;;;;;;5005013;28;20601;-78
2023/03/03 06:16:45;;;;;;;24.48;11.82;;;2.20;99.90;;;;;;5004137;28;20026;-79
2023/03/03 06:19:19;;;;;;;19.23;9.60;;;2.20;99.90;;;;;;5004001;28;20036;-80
2023/03/03 06:21:59;;;;;;;20.35;10.93;;;2.20;99.90;;;;;;5017771;28;20099;-80
2023/03/03 06:24:30;;;;;;;22.35;11.55;;;2.20;99.90;;;;;;5004444;28;20038;-80
2023/03/03 06:26:59;;;;;;;19.90;11.07;;;2.20;99.90;;;;;;5015545;28;20103;-81
2023/03/03 06:29:46;;;;;;;;;;;;;;;;;;;;;
2023/03/03 06:32:18;;;;;;;22.67;11.23;;;2.20;99.90;;;;;;5016175;28;20032;-79
2023/03/03 06:34:53;;;;;;;22.33;10.90;;;2.30;99.90;;;;;;5003942;28;20129;-80
2023/03/03 06:37:32;;;;;;;;;;;;;;;;;;;;;
2023/03/03 06:40:21;;;;;;;26.23;13.05;;;2.30;99.90;;;;;;5015875;28;20048;-78
2023/03/03 06:43:13;;;;;;;;;;;;;;;;;;;;;
2023/03/03 06:45:44;;;;;;;20.27;10.65;;;2.20;99.90;;;;;;5016285;28;20390;-80
2023/03/03 06:48:10;;;;;;;20.27;10.73;;;2.30;99.90;;;;;;5002400;28;20087;-80
2023/03/03 06:50:35;;;;;;;21.48;10.45;;;2.30;99.90;;;;;;5017764;28;20045;-78
2023/03/03 06:53:11;;;;;;;20.52;9.93;;;2.30;99.90;;;;;;5003420;28;20038;-79
2023/03/03 06:55:38;;;;;;;18.77;9.82;;;2.30;99.90;;;;;;5003816;28;20040;-78
2023/03/03 06:58:30;;;;;;;22.70;10.82;;;2.30;99.90;;;;;;5026463;28;20121;-80
2023/03/03 07:01:00;;;;;;;24.73;11.00;;;2.40;99.90;;;;;;5014720;28;20044;-79
2023/03/03 07:03:32;;;;;;;24.85;11.40;;;2.40;99.90;;;;;;5020822;28;20188;-80
2023/03/03 07:05:57;;;;;;;21.00;10.45;;;2.40;99.90;;;;;;5015571;28;20033;-78
2023/03/03 07:08:24;;;;;;;20.98;11.13;;;2.40;99.90;;;;;;5033948;28;20044;-79
2023/03/03 07:10:51;;;;;;;23.73;11.65;;;2.40;99.90;;;;;;5015883;28;20122;-78
2023/03/03 07:13:25;;;;;;;21.50;10.95;;;2.40;99.90;;;;;;5035244;28;20029;-78
2023/03/03 07:16:00;;;;;;;22.02;11.05;;;2.40;99.90;;;;;;5004130;28;20033;-78
2023/03/03 07:18:50;;;;;;;17.80;9.40;;;2.50;99.90;;;;;;5032216;28;20033;-79
2023/03/03 07:21:33;;;;;;;19.15;9.68;;;2.50;99.90;;;;;;5016918;28;20123;-80
2023/03/03 07:24:02;;;;;;;17.03;9.13;;;2.50;99.90;;;;;;5034180;28;20085;-77
2023/03/03 07:26:31;;;;;;;18.65;8.88;;;2.50;99.90;;;;;;5022645;28;20045;-77
2023/03/03 07:29:02;;;;;;;17.75;9.43;;;2.60;99.90;;;;;;5015387;28;20079;-78
2023/03/03 07:31:40;;;;;;;15.00;7.60;;;2.60;99.90;;;;;;5022350;28;20036;-78
2023/03/03 07:34:38;;;;;;;15.65;7.32;;;2.60;99.90;;;;;;5027164;28;20029;-77
2023/03/03 07:37:15;;;;;;;14.30;7.00;;;2.70;99.90;;;;;;5012813;28;20086;-79
2023/03/03 07:39:44;;;;;;;13.10;7.10;;;2.70;99.90;;;;;;5000618;28;20038;-77
2023/03/03 07:42:12;;;;;;;12.85;6.80;;;2.70;99.90;;;;;;5035382;28;20252;-79
2023/03/03 07:44:39;;;;;;;12.35;6.25;;;2.70;99.90;;;;;;5016340;28;20033;-77
2023/03/03 07:47:34;;;;;;;13.05;6.32;;;2.70;99.90;;;;;;5021515;28;20045;-80
2023/03/03 07:50:12;;;;;;;16.17;6.45;;;2.80;99.90;;;;;;5018713;28;20044;-79
2023/03/03 07:52:44;;;;;;;12.90;5.93;;;2.90;99.90;;;;;;5024956;28;20052;-78
2023/03/03 07:55:37;;;;;;;10.13;5.80;;;2.90;99.90;;;;;;5038164;28;20041;-78
2023/03/03 07:58:13;;;;;;;10.55;5.15;;;3.00;99.90;;;;;;5024907;28;20128;-78
2023/03/03 08:00:39;;;;;;;12.77;5.70;;;3.00;99.90;;;;;;5001035;28;20066;-79
2023/03/03 08:03:13;;;;;;;13.30;6.15;;;3.00;99.90;;;;;;5006384;28;20495;-78
2023/03/03 08:05:41;;;;;;;13.60;6.55;;;3.00;99.90;;;;;;5000660;28;20052;-78
2023/03/03 08:08:09;;;;;;;11.55;5.90;;;3.00;99.90;;;;;;5017835;28;20107;-78
2023/03/03 08:10:36;;;;;;;13.52;6.22;;;3.00;99.90;;;;;;5017645;28;20064;-78
2023/03/03 08:13:15;;;;;;;12.63;6.50;;;3.00;99.90;;;;;;5006066;28;20113;-78
2023/03/03 08:15:40;;;;;;;11.73;5.82;;;3.10;99.90;;;;;;5001666;28;20042;-78
2023/03/03 08:18:20;;;;;;;11.27;5.70;;;3.10;99.90;;;;;;4998753;28;20062;-78
2023/03/03 08:20:53;;;;;;;11.18;6.07;;;3.20;99.90;;;;;;5000762;28;20045;-78
2023/03/03 08:23:20;;;;;;;11.68;5.82;;;3.20;99.90;;;;;;5006317;28;20045;-79
2023/03/03 08:25:46;;;;;;;12.80;6.20;;;3.30;99.90;;;;;;5005330;28;20112;-79
2023/03/03 08:28:12;;;;;;;14.23;6.30;;;3.30;99.90;;;;;;5015053;28;20037;-78
2023/03/03 08:30:38;;;;;;;14.65;7.00;;;3.30;99.90;;;;;;4997757;28;20040;-78
2023/03/03 08:33:04;;;;;;;12.02;6.65;;;3.30;99.90;;;;;;4997212;28;20399;-78
2023/03/03 08:35:30;;;;;;;11.07;5.35;;;3.40;99.90;;;;;;5003760;28;20037;-77
2023/03/03 08:37:56;;;;;;;10.93;5.43;;;3.50;99.90;;;;;;5002514;28;20176;-79
2023/03/03 08:40:21;;;;;;;11.65;6.18;;;3.50;99.90;;;;;;5003920;28;20463;-78
2023/03/03 08:42:47;;;;;;;11.48;5.55;;;3.50;99.90;;;;;;4997465;28;20042;-78
2023/03/03 08:45:13;;;;;;;12.68;6.47;;;3.60;99.90;;;;;;5003057;28;20034;-77
2023/03/03 08:47:38;;;;;;;12.18;5.90;;;3.60;99.90;;;;;;4997126;28;20099;-78
2023/03/03 08:50:05;;;;;;;12.30;6.45;;;3.60;99.90;;;;;;5002757;28;20030;-76
2023/03/03 08:52:31;;;;;;;11.57;6.20;;;3.50;99.90;;;;;;4998023;28;20073;-78
2023/03/03 08:54:56;;;;;;;13.02;6.28;;;3.50;99.90;;;;;;4998938;28;20125;-80
2023/03/03 08:57:22;;;;;;;11.68;6.07;;;3.50;99.90;;;;;;5003153;28;20080;-80
2023/03/03 08:59:48;;;;;;;10.68;5.10;;;3.50;99.90;;;;;;5033458;28;20033;-76
2023/03/03 09:02:13;;;;;;;11.07;5.50;;;3.50;99.90;;;;;;5017163;28;20041;-79
2023/03/03 09:04:39;;;;;;;10.57;5.30;;;3.60;99.90;;;;;;5018473;28;20037;-81
2023/03/03 09:07:05;;;;;;;11.85;6.15;;;3.70;99.90;;;;;;5021957;28;20461;-79
2023/03/03 09:09:30;;;;;;;11.75;5.55;;;3.70;99.90;;;;;;5016169;28;20710;-80
2023/03/03 09:11:58;;;;;;;10.02;5.05;;;3.80;99.90;;;;;;5016972;28;20037;-78
2023/03/03 09:14:27;;;;;;;13.35;6.22;;;3.90;99.90;;;;;;5016920;28;20395;-79
2023/03/03 09:16:56;;;;;;;12.02;6.07;;;4.00;99.90;;;;;;5033604;28;20060;-80
2023/03/03 09:19:31;;;;;;;11.52;5.95;;;4.00;99.90;;;;;;5015333;28;22215;-80
2023/03/03 09:22:19;;;;;;;12.30;6.07;;;4.10;99.90;;;;;;5033959;28;20055;-78
2023/03/03 09:24:46;;;;;;;9.73;5.18;;;4.20;99.90;;;;;;5019476;28;20439;-79
2023/03/03 09:27:20;;;;;;;12.13;5.78;;;4.40;99.90;;;;;;5015049;28;20107;-79
2023/03/03 09:29:46;;;;;;;10.38;6.20;;;4.50;99.90;;;;;;5016603;28;20950;-79
2023/03/03 09:32:34;;;;;;;11.13;6.20;;;4.50;99.90;;;;;;5015977;28;20037;-79
2023/03/03 09:35:28;;;;;;;10.90;5.82;;;4.60;99.90;;;;;;5008138;28;20063;-77
2023/03/03 09:37:53;;;;;;;10.45;6.32;;;4.80;99.90;;;;;;5015622;28;20036;-80
2023/03/03 09:40:44;;;;;;;11.05;5.82;;;4.80;99.90;;;;;;5022355;28;20045;-78
2023/03/03 09:43:22;;;;;;;8.82;4.97;;;4.90;99.90;;;;;;5015920;28;20390;-79
2023/03/03 09:45:57;;;;;;;11.63;5.35;;;5.20;99.90;;;;;;5016822;28;20505;-79
2023/03/03 09:48:32;;;;;;;8.73;4.78;;;5.40;99.90;;;;;;5016579;28;20073;-80
2023/03/03 09:51:16;;;;;;;8.50;4.47;;;5.40;99.90;;;;;;5016779;28;20061;-80
2023/03/03 09:54:08;;;;;;;8.15;4.30;;;5.60;99.90;;;;;;5035053;28;20133;-80
2023/03/03 09:56:47;;;;;;;7.75;4.03;;;6.70;99.90;;;;;;5034391;28;20087;-77
2023/03/03 09:59:52;;;;;;;8.95;4.68;;;7.80;99.90;;;;;;5034029;28;20039;-79
2023/03/03 10:02:27;;;;;;;8.48;3.92;;;7.90;99.90;;;;;;5018056;28;20667;-78
2023/03/03 10:05:11;;;;;;;6.43;3.95;;;8.50;99.90;;;;;;5022610;28;20041;-79
2023/03/03 10:07:48;;;;;;;7.30;3.85;;;10.00;99.90;;;;;;5017705;28;20052;-78
2023/03/03 10:10:17;;;;;;;6.57;3.45;;;11.10;99.90;;;;;;5022040;28;20033;-78
2023/03/03 10:13:18;;;;;;;5.40;2.83;;;12.40;99.90;;;;;;5022090;28;20044;-81
2023/03/03 10:16:01;;;;;;;6.78;3.13;;;12.80;99.90;;;;;;5034291;28;20037;-80
2023/03/03 10:18:51;;;;;;;5.35;3.30;;;12.90;99.90;;;;;;5014692;28;20059;-79
2023/03/03 10:21:28;;;;;;;6.40;3.22;;;13.40;99.90;;;;;;5028755;28;20140;-79
2023/03/03 10:24:15;;;;;;;6.22;3.20;;;13.10;99.90;;;;;;5034223;28;20040;-78
2023/03/03 10:27:29;;;;;;;4.78;2.25;;;12.10;99.90;;;;;;5016210;28;20052;-80
2023/03/03 10:30:17;;;;;;;6.03;3.10;;;11.40;99.90;;;;;;4969973;28;20072;-79
2023/03/03 10:33:17;;;;;;;4.78;2.72;;;12.40;99.90;;;;;;5023722;28;20131;-80
2023/03/03 10:36:07;;;;;;;4.75;2.78;;;13.20;99.90;;;;;;5018112;28;20121;-80
2023/03/03 10:39:00;;;;;;;3.13;1.83;;;14.40;99.90;;;;;;5034516;28;20581;-79
2023/03/03 10:41:39;;;;;;;3.60;2.10;;;15.60;99.90;;;;;;5035999;28;20037;-80
2023/03/03 10:44:17;;;;;;;4.13;2.28;;;16.80;99.90;;;;;;5018763;28;20037;-79
2023/03/03 10:46:56;;;;;;;3.75;1.80;;;17.50;99.90;;;;;;5034762;28;20034;-78
2023/03/03 10:49:40;;;;;;;4.50;1.85;;;17.70;99.90;;;;;;5035386;28;20471;-79
2023/03/03 10:52:39;;;;;;;4.00;2.20;;;18.00;99.90;;;;;;5027805;28;21024;-79
2023/03/03 10:55:20;;;;;;;4.45;2.30;;;18.60;99.90;;;;;;5001379;28;20186;-77
2023/03/03 10:57:51;;;;;;;3.75;2.08;;;18.90;99.90;;;;;;5036073;28;20057;-78
2023/03/03 11:00:23;;;;;;;4.40;2.65;;;19.00;99.90;;;;;;5034581;28;20033;-78
2023/03/03 11:03:17;;;;;;;4.00;2.22;;;19.00;99.90;;;;;;5017588;28;20040;-79
2023/03/03 11:05:42;;;;;;;;;;;19.20;99.90;;;;;;5018462;28;20107;-78
2023/03/03 11:08:35;;;;;;;5.93;3.15;;;19.10;99.90;;;;;;5015161;28;20332;-78
2023/03/03 11:11:33;;;;;;;5.90;2.78;;;19.20;99.90;;;;;;5034240;28;20029;-80
2023/03/03 11:14:04;;;;;;;3.95;2.58;;;17.80;99.90;;;;;;5016252;28;20048;-80
2023/03/03 11:16:49;;;;;;;3.97;2.33;;;16.50;99.90;;;;;;5035624;28;20055;-80
2023/03/03 11:19:27;;;;;;;4.05;2.22;;;15.80;99.90;;;;;;5015114;28;20033;-78
2023/03/03 11:21:58;;;;;;;4.10;2.58;;;15.30;99.90;;;;;;5022438;28;20474;-79
2023/03/03 11:24:33;;;;;;;3.80;2.20;;;14.60;99.90;;;;;;5026448;28;20390;-77
2023/03/03 11:27:04;;;;;;;3.78;2.10;;;14.30;99.90;;;;;;5038572;28;20049;-77
2023/03/03 11:29:55;;;;;;;3.92;2.50;;;13.80;99.90;;;;;;5021051;28;20064;-78
2023/03/03 11:32:51;;;;;;;3.58;2.00;;;13.30;99.90;;;;;;5039034;28;20037;-79
2023/03/03 11:35:26;;;;;;;3.83;2.03;;;12.60;99.90;;;;;;5021075;28;20068;-76
2023/03/03 11:38:26;;;;;;;4.68;2.40;;;11.80;99.90;;;;;;5036326;28;20030;-77
2023/03/03 11:41:00;;;;;;;4.32;2.30;;;12.50;99.90;;;;;;5036918;28;20052;-79
2023/03/03 11:43:46;;;;;;;4.05;2.05;;;14.10;99.90;;;;;;5026260;28;20123;-80
2023/03/03 11:46:23;;;;;;;3.45;2.00;;;15.60;99.90;;;;;;5040287;28;20053;-79
2023/03/03 11:49:05;;;;;;;3.33;1.80;;;16.80;99.90;;;;;;5018772;28;20502;-78
2023/03/03 11:51:42;;;;;;;3.78;1.70;;;17.30;98.30;;;;;;5036779;28;20110;-80
2023/03/03 11:54:14;;;;;;;3.15;1.67;;;17.50;98.10;;;;;;5022149;28;20041;-80
2023/03/03 11:56:42;;;;;;;3.45;1.20;;;18.20;97.90;;;;;;5038874;28;20034;-78
2023/03/03 11:59:30;;;;;;;3.50;1.33;;;18.80;97.40;;;;;;5037653;28;20127;-80
2023/03/03 12:02:12;;;;;;;3.10;1.83;;;19.40;96.20;;;;;;5019828;28;20069;-77
2023/03/03 12:05:04;;;;;;;3.45;1.67;;;19.50;95.10;;;;;;5038905;28;20135;-78
2023/03/03 12:07:42;;;;;;;2.50;1.20;;;19.70;94.70;;;;;;5037817;28;20053;-81
2023/03/03 12:10:16;;;;;;;1.30;1.00;;;19.90;94.40;;;;;;5018926;28;20371;-80
2023/03/03 12:13:05;;;;;;;2.60;1.08;;;20.30;93.90;;;;;;5020957;28;20322;-79
2023/03/03 12:15:31;;;;;;;4.30;1.40;;;20.80;93.30;;;;;;5020296;28;20029;-80
2023/03/03 12:18:03;;;;;;;3.60;1.30;;;20.90;92.50;;;;;;5016112;28;20061;-80
2023/03/03 12:20:53;;;;;;;4.55;1.33;;;21.20;92.20;;;;;;5021185;28;20040;-79
2023/03/03 12:23:41;;;;;;;4.35;1.88;;;20.90;91.40;;;;;;5018531;28;20441;-79
2023/03/03 12:26:26;;;;;;;4.22;1.30;;;19.70;91.00;;;;;;5035997;28;20058;-79
2023/03/03 12:29:12;;;;;;;3.47;1.33;;;17.90;91.00;;;;;;5024883;28;20037;-78
2023/03/03 12:31:40;;;;;;;2.95;1.25;;;17.50;92.00;;;;;;5024143;28;20134;-81
2023/03/03 12:34:23;;;;;;;2.67;0.90;;;18.20;92.30;;;;;;5022269;28;20400;-78
2023/03/03 12:37:07;;;;;;;1.77;1.05;;;19.30;91.50;;;;;;5018614;28;20037;-79
2023/03/03 12:39:44;;;;;;;1.70;1.15;;;20.00;90.90;;;;;;5020016;28;20048;-81
2023/03/03 12:42:23;;;;;;;2.53;0.85;;;19.90;90.40;;;;;;5017569;28;20053;-81
2023/03/03 12:45:04;;;;;;;1.52;0.88;;;19.30;90.40;;;;;;5018000;28;20034;-81
2023/03/03 12:47:37;;;;;;;3.45;1.02;;;18.40;90.70;;;;;;5018495;28;20029;-81
2023/03/03 12:50:27;;;;;;;2.80;1.13;;;18.00;91.40;;;;;;5019398;28;20115;-78
2023/03/03 12:53:11;;;;;;;2.70;0.90;;;18.10;91.20;;;;;;5017308;28;20088;-80
2023/03/03 12:56:11;;;;;;;3.80;1.58;;;17.70;91.00;;;;;;5024851;28;20048;-79
2023/03/03 12:58:50;;;;;;;2.90;1.50;;;16.50;91.00;;;;;;5036960;28;20564;-79
2023/03/03 13:01:22;;;;;;;3.25;1.30;;;15.50;91.70;;;;;;5020184;28;20473;-78
2023/03/03 13:04:17;;;;;;;2.67;1.23;;;16.10;91.90;;;;;;5018063;28;20052;-78
2023/03/03 13:07:01;;;;;;;2.53;1.08;;;16.00;91.50;;;;;;5012368;28;20132;-80
2023/03/03 13:09:54;;;;;;;1.83;0.88;;;16.40;91.70;;;;;;5018077;28;20098;-79
2023/03/03 13:12:29;;;;;;;1.87;0.87;;;17.50;91.40;;;;;;5023643;28;20060;-78
2023/03/03 13:15:11;;;;;;;2.83;1.00;;;18.60;90.40;;;;;;5035017;28;20302;-80
2023/03/03 13:17:46;;;;;;;2.95;1.10;;;19.60;90.00;;;;;;5019397;28;20053;-80